Data for 03/23/2013

Time Sea-Level Adjusted Pressure Absolute Pressure Temperature Relative Humidity Dew Point   
(mb) (inHg) (mb) (inHg) (C) (F) (%) (C) (F)
00:05 1019 30.09 848 25.04 -7.4 18.6 79 -10.4 13.3
00:10 1019 30.09 848 25.04 -7.6 18.4 81 -10.3 13.5
00:15 1019 30.09 848 25.04 -7.7 18.1 84 -10 14
00:20 1019 30.09 848 25.04 -7.8 17.9 83 -10.3 13.5
00:25 1019 30.09 849 25.07 -7.9 17.8 81 -10.5 13.1
00:30 1019 30.09 849 25.07 -7.9 17.7 82 -10.4 13.2
00:35 1019 30.09 849 25.07 -8 17.5 83 -10.5 13.2
00:40 1019 30.09 849 25.07 -8.1 17.4 82 -10.6 13
00:45 1019 30.09 849 25.07 -8 17.7 81 -10.7 12.7
00:50 1019 30.09 849 25.07 -7.9 17.8 81 -10.6 13
00:55 1019 30.09 849 25.07 -7.9 17.9 77 -11.2 11.9
01:00 1020 30.12 849 25.07 -8 17.7 75 -11.6 11.1
01:05 1020 30.12 849 25.07 -8 17.6 77 -11.4 11.5
01:10 1020 30.12 849 25.07 -7.9 17.8 81 -10.5 13
01:15 1020 30.12 849 25.07 -7.9 17.8 80 -10.8 12.5
01:20 1020 30.12 849 25.07 -8 17.5 77 -11.4 11.4
01:25 1020 30.12 849 25.07 -8.1 17.3 74 -11.9 10.5
01:30 1020 30.12 849 25.07 -8.3 17.1 74 -12.1 10.2
01:35 1020 30.12 849 25.07 -8.3 17 75 -12.1 10.3
01:40 1020 30.12 849 25.07 -8.3 17 74 -12.1 10.1
01:45 1020 30.12 849 25.07 -8.3 17.2 74 -12 10.4
01:50 1020 30.12 849 25.07 -8.3 17.1 71 -12.6 9.2
01:55 1020 30.12 849 25.07 -8.3 17 72 -12.6 9.3
02:00 1020 30.12 849 25.07 -8.3 17.1 70 -12.8 8.9
02:05 1020 30.12 849 25.07 -8.4 16.9 70 -12.8 8.9
02:10 1020 30.12 849 25.07 -8.4 16.8 72 -12.6 9.3
02:15 1020 30.12 849 25.07 -8.5 16.8 71 -12.8 8.9
02:20 1020 30.12 849 25.07 -8.5 16.8 70 -13 8.6
02:25 1020 30.12 849 25.07 -8.4 16.8 71 -12.9 8.8
02:30 1020 30.12 849 25.07 -8.4 16.8 70 -13 8.6
02:35 1020 30.12 849 25.07 -8.5 16.7 70 -13 8.6
02:40 1020 30.12 849 25.07 -8.6 16.6 71 -12.9 8.8
02:45 1020 30.12 849 25.07 -8.6 16.5 71 -13 8.7
02:50 1020 30.12 849 25.07 -8.7 16.4 71 -13.1 8.4
02:55 1020 30.12 849 25.07 -8.7 16.3 72 -13 8.6
03:00 1020 30.12 849 25.07 -8.8 16.2 72 -13 8.6
03:05 1020 30.12 849 25.07 -8.8 16.1 71 -13.2 8.3
03:10 1020 30.12 849 25.07 -9 15.8 71 -13.4 7.9
03:15 1020 30.12 849 25.07 -9.1 15.7 71 -13.4 7.9
03:20 1020 30.12 849 25.07 -9.1 15.6 71 -13.4 7.8
03:25 1020 30.12 849 25.07 -9.2 15.4 71 -13.5 7.7
03:30 1020 30.12 849 25.07 -9.3 15.2 71 -13.7 7.3
03:35 1020 30.12 849 25.07 -9.4 15.2 71 -13.6 7.4
03:40 1020 30.12 849 25.07 -9.5 15 72 -13.7 7.4
03:45 1020 30.12 849 25.07 -9.4 15 72 -13.7 7.4
03:50 1020 30.12 850 25.1 -9.5 14.9 72 -13.7 7.3
03:55 1020 30.12 850 25.1 -9.5 14.8 72 -13.7 7.4
04:00 1020 30.12 850 25.1 -9.6 14.8 72 -13.7 7.4
04:05 1020 30.12 850 25.1 -9.6 14.8 72 -13.7 7.3
04:10 1020 30.12 850 25.1 -9.6 14.8 72 -13.8 7.2
04:15 1020 30.12 850 25.1 -9.6 14.8 72 -13.7 7.3
04:20 1020 30.12 850 25.1 -9.5 14.9 71 -13.8 7.1
04:25 1021 30.15 850 25.1 -9.5 14.9 71 -13.9 7
04:30 1021 30.15 850 25.1 -9.5 14.8 71 -13.9 7
04:35 1021 30.15 850 25.1 -9.7 14.6 71 -13.9 6.9
04:40 1021 30.15 850 25.1 -9.7 14.5 71 -14.1 6.7
04:45 1021 30.15 850 25.1 -9.8 14.4 70 -14.2 6.4
04:50 1021 30.15 850 25.1 -9.8 14.3 69 -14.4 6.1
04:55 1021 30.15 850 25.1 -9.9 14.3 69 -14.5 5.9
05:00 1021 30.15 850 25.1 -10 14 70 -14.4 6.1
05:05 1021 30.15 850 25.1 -10 14 70 -14.5 5.9
05:10 1021 30.15 850 25.1 -10.1 13.9 70 -14.6 5.8
05:15 1021 30.15 850 25.1 -10.2 13.7 70 -14.6 5.7
05:20 1021 30.15 850 25.1 -10.2 13.7 70 -14.7 5.6
05:25 1021 30.15 850 25.1 -10.1 13.7 70 -14.7 5.6
05:30 1021 30.15 850 25.1 -10.2 13.6 71 -14.5 5.8
05:35 1021 30.15 850 25.1 -10.6 13 72 -14.7 5.6
05:40 1021 30.15 851 25.13 -10.8 12.7 74 -14.6 5.7
05:45 1021 30.15 851 25.13 -10.6 12.8 72 -14.7 5.5
05:50 1021 30.15 851 25.13 -10.4 13.2 72 -14.6 5.7
05:55 1021 30.15 851 25.13 -10.4 13.3 72 -14.6 5.8
06:00 1022 30.18 851 25.13 -10.3 13.4 71 -14.7 5.6
06:05 1022 30.18 851 25.13 -10.1 13.7 70 -14.7 5.6
06:10 1022 30.18 851 25.13 -10 14.1 69 -14.7 5.6
06:15 1022 30.18 851 25.13 -9.9 14.2 69 -14.6 5.7
06:20 1022 30.18 851 25.13 -9.8 14.4 69 -14.4 6
06:25 1022 30.18 851 25.13 -9.7 14.6 67 -14.7 5.6
06:30 1022 30.18 851 25.13 -9.6 14.8 66 -14.8 5.4
06:35 1022 30.18 851 25.13 -9.5 14.9 66 -14.8 5.4
06:40 1022 30.18 851 25.13 -9.5 14.9 65 -14.9 5.2
06:45 1022 30.18 851 25.13 -9.6 14.7 67 -14.6 5.7
06:50 1022 30.18 851 25.13 -9.8 14.3 70 -14.3 6.3
06:55 1022 30.18 851 25.13 -9.9 14.2 72 -14.1 6.6
07:00 1022 30.18 851 25.13 -9.7 14.5 72 -13.9 7
07:05 1022 30.18 851 25.13 -9.8 14.5 72 -13.9 7.1
07:10 1022 30.18 851 25.13 -9.8 14.3 72 -14 6.8
07:15 1022 30.18 851 25.13 -9.9 14.2 72 -14 6.8
07:20 1022 30.18 851 25.13 -9.9 14.2 73 -13.9 7
07:25 1022 30.18 851 25.13 -9.6 14.8 70 -14.1 6.6
07:30 1022 30.18 851 25.13 -9.3 15.2 69 -14 6.8
07:35 1022 30.18 851 25.13 -9.4 15.1 68 -14.2 6.5
07:40 1022 30.18 851 25.13 -9.4 15.1 69 -14.1 6.7
07:45 1022 30.18 852 25.16 -9.2 15.4 69 -14 6.9
07:50 1022 30.18 852 25.16 -8.9 16 68 -13.8 7.1
07:55 1022 30.18 852 25.16 -8.9 16 67 -13.9 7
08:00 1023 30.21 852 25.16 -8.5 16.7 66 -13.8 7.2
08:05 1022 30.18 852 25.16 -8 17.5 64 -13.7 7.4
08:10 1022 30.18 852 25.16 -8.5 16.7 66 -13.8 7.2
08:15 1022 30.18 852 25.16 -8.4 16.8 66 -13.6 7.5
08:20 1022 30.18 852 25.16 -8.1 17.4 63 -13.9 7
08:25 1022 30.18 852 25.16 -8.4 16.9 64 -14 6.7
08:30 1022 30.18 852 25.16 -8.2 17.2 62 -14.3 6.3
08:35 1023 30.21 852 25.16 -7.1 19.2 57 -14.3 6.2
08:40 1023 30.21 852 25.16 -6.8 19.7 57 -14 6.9
08:45 1023 30.21 852 25.16 -6.4 20.5 56 -13.8 7.1
08:50 1023 30.21 852 25.16 -6.1 21 52 -14.3 6.2
08:55 1023 30.21 852 25.16 -6.6 20 55 -14.2 6.4
09:00 1023 30.21 852 25.16 -6.8 19.7 55 -14.4 6.1
09:05 1023 30.21 852 25.16 -7.4 18.6 62 -13.5 7.7
09:10 1023 30.21 852 25.16 -7.8 18 60 -14.2 6.5
09:15 1023 30.21 852 25.16 -7.4 18.7 57 -14.6 5.7
09:20 1023 30.21 852 25.16 -7.8 18 60 -14.3 6.2
09:25 1022 30.18 852 25.16 -7 19.5 55 -14.5 5.9
09:30 1022 30.18 852 25.16 -6.5 20.2 56 -14 6.9
09:35 1022 30.18 852 25.16 -6.9 19.5 56 -14.2 6.4
09:40 1022 30.18 852 25.16 -7.5 18.5 57 -14.5 5.9
09:45 1023 30.21 852 25.16 -7.5 18.5 57 -14.6 5.6
09:50 1023 30.21 852 25.16 -7.3 18.9 58 -14.3 6.3
09:55 1023 30.21 852 25.16 -7.1 19.2 59 -13.8 7.1
10:00 1023 30.21 852 25.16 -6.8 19.8 55 -14.4 6
10:05 1023 30.21 852 25.16 -6.8 19.8 56 -14.2 6.4
10:10 1023 30.21 852 25.16 -6.4 20.4 55 -14 6.8
10:15 1023 30.21 852 25.16 -6.3 20.6 52 -14.6 5.8
10:20 1023 30.21 852 25.16 -6.6 20.1 54 -14.3 6.2
10:25 1023 30.21 852 25.16 -6.7 19.9 56 -14.1 6.5
10:30 1023 30.21 852 25.16 -6.2 20.8 52 -14.5 5.8
10:35 1023 30.21 852 25.16 -5.9 21.4 51 -14.5 5.9
10:40 1023 30.21 852 25.16 -6.4 20.5 50 -15.2 4.6
10:45 1023 30.21 852 25.16 -6.5 20.4 53 -14.5 5.9
10:50 1023 30.21 852 25.16 -6.8 19.8 55 -14.5 6
10:55 1023 30.21 852 25.16 -6.7 19.9 56 -14.1 6.6
11:00 1023 30.21 852 25.16 -6 21.2 50 -14.8 5.4
11:05 1023 30.21 852 25.16 -5.7 21.7 52 -14 6.8
11:10 1023 30.21 852 25.16 -5.2 22.6 48 -14.6 5.7
11:15 1022 30.18 852 25.16 -4.8 23.3 48 -14.4 6.1
11:20 1022 30.18 852 25.16 -5.4 22.3 48 -14.7 5.6
11:25 1022 30.18 852 25.16 -6.1 21 54 -14.1 6.6
11:30 1022 30.18 852 25.16 -5.7 21.8 50 -14.6 5.7
11:35 1022 30.18 851 25.13 -6 21.2 53 -14.2 6.5
11:40 1022 30.18 851 25.13 -6 21.1 50 -14.9 5.2
11:45 1022 30.18 851 25.13 -5.6 22 52 -14 6.9
11:50 1022 30.18 851 25.13 -5.2 22.6 50 -14.2 6.5
11:55 1022 30.18 851 25.13 -5 23 51 -13.7 7.3
12:00 1022 30.18 851 25.13 -5.5 22 51 -14.2 6.4
12:05 1022 30.18 851 25.13 -5.3 22.4 51 -14 6.8
12:10 1022 30.18 851 25.13 -5.2 22.6 48 -14.6 5.8
12:15 1022 30.18 851 25.13 -5.1 22.8 47 -14.8 5.4
12:20 1022 30.18 851 25.13 -5 23 49 -14.1 6.6
12:25 1022 30.18 851 25.13 -4.8 23.3 48 -14.2 6.4
12:30 1022 30.18 851 25.13 -5.1 22.8 52 -13.6 7.6
12:35 1022 30.18 851 25.13 -4.6 23.7 46 -14.6 5.8
12:40 1022 30.18 851 25.13 -4.1 24.6 47 -13.9 6.9
12:45 1022 30.18 851 25.13 -4.2 24.5 47 -13.9 7
12:50 1022 30.18 851 25.13 -3.8 25.2 46 -13.8 7.1
12:55 1022 30.18 851 25.13 -4.5 23.9 50 -13.4 7.9
13:00 1022 30.18 851 25.13 -4.3 24.3 48 -13.8 7.2
13:05 1022 30.18 851 25.13 -4 24.8 46 -13.9 6.9
13:10 1022 30.18 851 25.13 -4.4 24.1 46 -14.3 6.2
13:15 1022 30.18 851 25.13 -4.5 23.8 47 -14.2 6.5
13:20 1022 30.18 851 25.13 -4.4 24.1 46 -14.4 6.1
13:25 1022 30.18 851 25.13 -4.3 24.2 47 -14 6.8
13:30 1021 30.15 851 25.13 -4.2 24.5 46 -14.3 6.3
13:35 1021 30.15 851 25.13 -4.3 24.3 49 -13.4 7.8
13:40 1021 30.15 851 25.13 -4.1 24.5 46 -14.1 6.6
13:45 1021 30.15 850 25.1 -4.1 24.7 42 -15.1 4.8
13:50 1021 30.15 850 25.1 -4.1 24.6 47 -13.7 7.3
13:55 1021 30.15 850 25.1 -3.9 24.9 46 -13.8 7.1
14:00 1021 30.15 850 25.1 -3.9 24.9 48 -13.4 7.8
14:05 1021 30.15 850 25.1 -4.1 24.6 49 -13.3 8.1
14:10 1021 30.15 850 25.1 -4.1 24.6 49 -13.4 8
14:15 1021 30.15 850 25.1 -3.8 25.2 47 -13.5 7.6
14:20 1021 30.15 850 25.1 -4.2 24.5 45 -14.4 6
14:25 1021 30.15 850 25.1 -4 24.8 44 -14.4 6
14:30 1021 30.15 850 25.1 -3.6 25.6 45 -13.8 7.2
14:35 1021 30.15 850 25.1 -3.6 25.5 43 -14.6 5.7
14:40 1021 30.15 850 25.1 -3.7 25.4 45 -14 6.8
14:45 1021 30.15 850 25.1 -3 26.6 40 -14.7 5.6
14:50 1021 30.15 850 25.1 -3.5 25.8 40 -15.4 4.4
14:55 1021 30.15 850 25.1 -3.2 26.3 43 -13.9 7
15:00 1021 30.15 850 25.1 -3 26.6 42 -14.3 6.3
15:05 1021 30.15 850 25.1 -2.8 27 39 -14.9 5.1
15:10 1021 30.15 850 25.1 -2.8 26.9 42 -14.1 6.6
15:15 1021 30.15 850 25.1 -3 26.7 42 -14.1 6.6
15:20 1021 30.15 850 25.1 -3.1 26.3 44 -13.8 7.1
15:25 1021 30.15 850 25.1 -2.6 27.3 40 -14.6 5.8
15:30 1021 30.15 850 25.1 -2.7 27.2 39 -15 5.1
15:35 1021 30.15 850 25.1 -2.8 27 38 -15.4 4.3
15:40 1021 30.15 850 25.1 -2.8 26.9 39 -15.1 4.8
15:45 1021 30.15 850 25.1 -2.6 27.4 42 -13.8 7.2
15:50 1021 30.15 850 25.1 -2.2 28.1 39 -14.4 6
15:55 1021 30.15 850 25.1 -1.7 29 37 -14.4 6
16:00 1021 30.15 850 25.1 -1.7 28.9 38 -14.3 6.3
16:05 1021 30.15 850 25.1 -1.2 29.8 37 -14.1 6.7
16:10 1021 30.15 850 25.1 -1.5 29.3 41 -13.2 8.2
16:15 1021 30.15 850 25.1 -2.1 28.2 45 -12.5 9.6
16:20 1021 30.15 850 25.1 -2.4 27.7 47 -12.2 10
16:25 1021 30.15 850 25.1 -2.7 27.1 46 -12.9 8.7
16:30 1021 30.15 850 25.1 -2.5 27.4 46 -12.8 9
16:35 1021 30.15 850 25.1 -2.1 28.2 46 -12.1 10.1
16:40 1021 30.15 850 25.1 -2.5 27.5 49 -11.9 10.6
16:45 1021 30.15 850 25.1 -2.6 27.2 51 -11.5 11.3
16:50 1021 30.15 850 25.1 -2.9 26.7 54 -10.9 12.4
16:55 1021 30.15 850 25.1 -3.5 25.7 58 -10.6 12.9
17:00 1021 30.15 850 25.1 -4.1 24.6 56 -11.5 11.2
17:05 1021 30.15 850 25.1 -4.6 23.7 58 -11.8 10.8
17:10 1021 30.15 850 25.1 -4.6 23.7 56 -12.1 10.2
17:15 1021 30.15 850 25.1 -4.6 23.8 57 -11.9 10.6
17:20 1021 30.15 850 25.1 -4.3 24.2 55 -12.2 10.1
17:25 1021 30.15 850 25.1 -4.5 24 56 -12 10.4
17:30 1021 30.15 850 25.1 -4.5 23.9 57 -11.8 10.7
17:35 1021 30.15 850 25.1 -4.5 24 57 -11.9 10.6
17:40 1021 30.15 850 25.1 -4.5 24 55 -12.2 10
17:45 1021 30.15 850 25.1 -4.6 23.8 57 -11.8 10.8
17:50 1021 30.15 850 25.1 -4.3 24.3 54 -12.2 10
17:55 1021 30.15 850 25.1 -4.4 24 57 -11.8 10.8
18:00 1021 30.15 850 25.1 -4.4 24 57 -11.6 11.1
18:05 1021 30.15 850 25.1 -4.4 24 56 -12 10.4
18:10 1021 30.15 850 25.1 -4.5 24 57 -11.7 10.9
18:15 1021 30.15 850 25.1 -4.6 23.7 59 -11.4 11.4
18:20 1021 30.15 850 25.1 -4.9 23.3 59 -11.7 11
18:25 1021 30.15 850 25.1 -4.9 23.1 57 -12.1 10.2
18:30 1021 30.15 850 25.1 -5 23 57 -12.2 10
18:35 1021 30.15 850 25.1 -4.8 23.3 56 -12.4 9.7
18:40 1021 30.15 850 25.1 -4.8 23.3 57 -12.2 10
18:45 1021 30.15 850 25.1 -4.9 23.1 57 -12.2 10.1
18:50 1021 30.15 850 25.1 -5 22.9 57 -12.3 9.9
18:55 1021 30.15 850 25.1 -5 23 55 -12.6 9.3
19:00 1021 30.15 850 25.1 -4.9 23.1 56 -12.5 9.4
19:05 1021 30.15 850 25.1 -4.9 23.2 55 -12.7 9.2
19:10 1021 30.15 850 25.1 -5 23 56 -12.5 9.4
19:15 1021 30.15 850 25.1 -5.1 22.7 56 -12.5 9.4
19:20 1021 30.15 850 25.1 -5.2 22.6 57 -12.5 9.5
19:25 1021 30.15 850 25.1 -5.6 21.9 59 -12.3 9.8
19:30 1021 30.15 850 25.1 -6.3 20.6 61 -12.7 9.2
19:35 1021 30.15 850 25.1 -6.7 19.9 62 -12.8 8.9
19:40 1021 30.15 850 25.1 -6.7 20 62 -12.7 9.1
19:45 1021 30.15 850 25.1 -6.8 19.8 63 -12.7 9.1
19:50 1021 30.15 850 25.1 -6.9 19.6 63 -12.8 9
19:55 1021 30.15 850 25.1 -7.1 19.3 64 -12.9 8.9
20:00 1021 30.15 851 25.13 -7.1 19.2 62 -13.2 8.2
20:05 1021 30.15 851 25.13 -7.2 19.1 62 -13.3 8
20:10 1021 30.15 851 25.13 -7.3 18.8 63 -13.2 8.3
20:15 1022 30.18 851 25.13 -7.4 18.7 65 -13 8.6
20:20 1022 30.18 851 25.13 -7.6 18.4 65 -13 8.6
20:25 1022 30.18 851 25.13 -7.8 18 65 -13.2 8.3
20:30 1022 30.18 851 25.13 -7.8 17.9 65 -13.3 8
20:35 1022 30.18 851 25.13 -8.1 17.4 64 -13.7 7.3
20:40 1022 30.18 851 25.13 -8.2 17.3 65 -13.6 7.5
20:45 1022 30.18 851 25.13 -8.1 17.4 64 -13.8 7.1
20:50 1022 30.18 851 25.13 -8 17.6 64 -13.7 7.3
20:55 1022 30.18 851 25.13 -7.9 17.8 63 -13.7 7.3
21:00 1022 30.18 851 25.13 -7.9 17.7 64 -13.7 7.4
21:05 1022 30.18 851 25.13 -8.1 17.4 63 -13.9 7
21:10 1022 30.18 851 25.13 -8.2 17.2 65 -13.7 7.3
21:15 1022 30.18 851 25.13 -8.3 17.1 64 -13.9 7
21:20 1022 30.18 851 25.13 -8.3 17 64 -13.9 7
21:25 1022 30.18 851 25.13 -8.5 16.8 64 -14.1 6.7
21:30 1022 30.18 851 25.13 -8.6 16.6 65 -14 6.9
21:35 1022 30.18 851 25.13 -8.6 16.5 65 -14 6.7
21:40 1022 30.18 851 25.13 -8.6 16.6 64 -14.1 6.5
21:45 1022 30.18 851 25.13 -8.6 16.6 64 -14.2 6.4
21:50 1022 30.18 851 25.13 -8.7 16.4 64 -14.3 6.3
21:55 1022 30.18 851 25.13 -8.8 16.3 63 -14.5 5.9
22:00 1022 30.18 851 25.13 -9 15.9 64 -14.7 5.6
22:05 1022 30.18 851 25.13 -9 15.8 64 -14.7 5.6
22:10 1022 30.18 851 25.13 -8.9 16 64 -14.5 5.8
22:15 1022 30.18 851 25.13 -8.9 16.1 64 -14.4 6.1
22:20 1022 30.18 851 25.13 -8.9 16 64 -14.4 6
22:25 1022 30.18 851 25.13 -8.9 16 64 -14.5 5.8
22:30 1022 30.18 851 25.13 -9 15.9 64 -14.6 5.7
22:35 1022 30.18 851 25.13 -9 15.7 64 -14.7 5.6
22:40 1022 30.18 851 25.13 -9.3 15.3 64 -14.9 5.1
22:45 1022 30.18 851 25.13 -9.5 15 65 -14.9 5.1
22:50 1022 30.18 851 25.13 -9.6 14.6 65 -15 5
22:55 1022 30.18 851 25.13 -9.7 14.6 66 -14.9 5.1
23:00 1022 30.18 851 25.13 -9.3 15.2 63 -15.1 4.8
23:05 1022 30.18 851 25.13 -9.5 15 64 -15.1 4.9
23:10 1022 30.18 851 25.13 -9.5 14.8 65 -15 5
23:15 1022 30.18 851 25.13 -9.5 14.8 65 -15 5
23:20 1022 30.18 851 25.13 -9.5 14.9 65 -15 5
23:25 1022 30.18 851 25.13 -9.5 14.9 65 -15 5
23:30 1022 30.18 851 25.13 -9.4 15.1 64 -14.9 5.1
23:35 1022 30.18 851 25.13 -9.3 15.4 65 -14.6 5.6
23:40 1022 30.18 851 25.13 -9.2 15.5 65 -14.6 5.7
23:45 1022 30.18 851 25.13 -9.1 15.6 65 -14.6 5.8
23:50 1022 30.18 851 25.13 -8.9 15.9 63 -14.7 5.6
23:55 1022 30.18 851 25.13 -8.8 16.1 63 -14.6 5.8
24:00 1022 30.18 851 25.13 -8.7 16.3 63 -14.5 5.9